Terminal Aerodrome Forecast
Issued by NWS

Home | Current Version | Previous Version | Text Only | Print | Product List | Glossary On
Versions: 1 2 3 4 5 6 7 8 9 10 11 12 13 14 15 16 17 18 19 20 21 22 23 24 25
000
FTUS45 KGJT 221738
TAFTEX
TAF
KTEX 221738Z 2218/2318 VRB03KT P6SM VCSH SCT050 BKN100
     FM221900 25009KT P6SM SCT080 SCT150
     FM230200 16005KT P6SM SCT110
     FM230600 13006KT P6SM SKC
      AMD NOT SKED=

USA.gov is the U.S. government's official web portal to all federal, state and local government web resources and services.